Byron, Michigan
Current Conditions -  °F | °C
As of 5:55 PM on Wednesday 26 Nov 2014 (Local Time) from KOZW Reporting Station
Overcast Overcast  
Wind Chill: -1°   Ceiling: 4200
Heat Index: -1°   Visibility: 10mi
Dew Point: -5°   Wind: 3mph
Humidity: 73%   Direction: 350°N
Pressure: 30.08"   Gusts: NA
Location:  42.82°N, 83.94°W
Report Text: KOZW 262255Z AUTO 35003KT 10SM OVC042 M01/M05 A3008 RMK AO2 T10111053
Loading
Personal Weather Stations






























Interactive Weather Map New forecast layout! Learn more

10-Day Weather Forecast

Advertisements
Track Severe Weather on mobile